Wells, Michigan
Current Conditions -  °F | °C
As of 4:35 AM on Thursday 27 Nov 2014 (Local Time) from KESC Reporting Station
Overcast Overcast  
Wind Chill:   Ceiling: 12000
Heat Index: 19°   Visibility: 10mi
Dew Point: 12°   Wind: 8mph
Humidity: 74%   Direction: 330°NNW
Pressure: 30.21"   Gusts: 16mph
Location:  45.78°N, 87.08°W
Report Text: KESC 270935Z AUTO 33007G14KT 10SM FEW070 FEW100 OVC120 M07/M11 A3021 RMK AO1
Loading
Personal Weather Stations






























Interactive Weather Map New forecast layout! Learn more

10-Day Weather Forecast

Advertisements
Track Severe Weather on mobile